sensor_id;sensor_type;location;lat;lon;timestamp;temperature;humidity
45311;SHT31;68264;51.540;5.854;2023-12-28T00:08:12;10.7;76.1
45311;SHT31;68264;51.540;5.854;2023-12-28T00:22:12;10.7;77.8
45311;SHT31;68264;51.540;5.854;2023-12-28T00:37:12;10.7;79.4
45311;SHT31;68264;51.540;5.854;2023-12-28T00:52:41;10.8;80.0
45311;SHT31;68264;51.540;5.854;2023-12-28T01:07:00;10.6;80.5
45311;SHT31;68264;51.540;5.854;2023-12-28T01:20:59;10.5;81.3
45311;SHT31;68264;51.540;5.854;2023-12-28T01:35:27;10.5;81.8
45311;SHT31;68264;51.540;5.854;2023-12-28T01:49:47;10.6;82.1
45311;SHT31;68264;51.540;5.854;2023-12-28T02:03:46;10.5;82.5
45311;SHT31;68264;51.540;5.854;2023-12-28T02:17:45;10.4;82.8
45311;SHT31;68264;51.540;5.854;2023-12-28T02:31:44;10.3;83.2
45311;SHT31;68264;51.540;5.854;2023-12-28T02:46:12;10.2;83.7
45311;SHT31;68264;51.540;5.854;2023-12-28T03:01:00;10.1;84.3
45311;SHT31;68264;51.540;5.854;2023-12-28T03:15:20;10.1;84.9
45311;SHT31;68264;51.540;5.854;2023-12-28T03:29:19;10.1;84.8
45311;SHT31;68264;51.540;5.854;2023-12-28T03:43:18;10.1;84.8
45311;SHT31;68264;51.540;5.854;2023-12-28T03:57:17;10.2;84.7
45311;SHT31;68264;51.540;5.854;2023-12-28T04:11:16;10.2;84.2
45311;SHT31;68264;51.540;5.854;2023-12-28T04:25:44;10.3;84.0
45311;SHT31;68264;51.540;5.854;2023-12-28T04:40:33;10.3;83.9
45311;SHT31;68264;51.540;5.854;2023-12-28T04:55:21;10.3;83.8
45311;SHT31;68264;51.540;5.854;2023-12-28T05:09:40;10.4;83.7
45311;SHT31;68264;51.540;5.854;2023-12-28T05:24:08;10.6;82.6
45311;SHT31;68264;51.540;5.854;2023-12-28T05:38:28;10.8;80.9
45311;SHT31;68264;51.540;5.854;2023-12-28T05:52:27;10.6;81.3
45311;SHT31;68264;51.540;5.854;2023-12-28T06:06:26;10.5;80.9
45311;SHT31;68264;51.540;5.854;2023-12-28T06:21:26;10.6;80.2
45311;SHT31;68264;51.540;5.854;2023-12-28T06:36:26;10.7;79.8
45311;SHT31;68264;51.540;5.854;2023-12-28T06:51:26;10.8;78.6
45311;SHT31;68264;51.540;5.854;2023-12-28T07:06:26;11.1;76.8
45311;SHT31;68264;51.540;5.854;2023-12-28T07:20:25;11.2;75.4
45311;SHT31;68264;51.540;5.854;2023-12-28T07:34:24;11.2;75.6
45311;SHT31;68264;51.540;5.854;2023-12-28T07:48:52;11.2;75.8
45311;SHT31;68264;51.540;5.854;2023-12-28T08:03:12;11.1;76.9
45311;SHT31;68264;51.540;5.854;2023-12-28T08:17:11;10.9;78.4
45311;SHT31;68264;51.540;5.854;2023-12-28T08:31:39;10.8;79.1
45311;SHT31;68264;51.540;5.854;2023-12-28T08:46:27;10.8;79.5
45311;SHT31;68264;51.540;5.854;2023-12-28T09:00:46;10.8;79.7
45311;SHT31;68264;51.540;5.854;2023-12-28T09:15:47;10.9;78.8
45311;SHT31;68264;51.540;5.854;2023-12-28T09:31:48;10.8;79.5
45311;SHT31;68264;51.540;5.854;2023-12-28T09:48:20;10.8;79.5
45311;SHT31;68264;51.540;5.854;2023-12-28T10:03:50;10.8;79.9
45311;SHT31;68264;51.540;5.854;2023-12-28T10:17:49;11.0;79.0
45311;SHT31;68264;51.540;5.854;2023-12-28T10:31:49;11.2;78.8
45311;SHT31;68264;51.540;5.854;2023-12-28T10:45:48;11.3;77.6
45311;SHT31;68264;51.540;5.854;2023-12-28T10:59:47;11.4;77.6
45311;SHT31;68264;51.540;5.854;2023-12-28T11:13:46;11.5;76.9
45311;SHT31;68264;51.540;5.854;2023-12-28T11:28:46;11.6;75.7
45311;SHT31;68264;51.540;5.854;2023-12-28T11:43:46;11.6;75.2
45311;SHT31;68264;51.540;5.854;2023-12-28T11:58:46;11.5;75.0
45311;SHT31;68264;51.540;5.854;2023-12-28T12:13:46;11.5;75.2
45311;SHT31;68264;51.540;5.854;2023-12-28T12:27:45;11.5;75.3
45311;SHT31;68264;51.540;5.854;2023-12-28T12:41:44;11.5;75.7
45311;SHT31;68264;51.540;5.854;2023-12-28T12:55:43;11.6;74.9
45311;SHT31;68264;51.540;5.854;2023-12-28T13:10:11;11.6;74.8
45311;SHT31;68264;51.540;5.854;2023-12-28T13:24:31;11.6;75.1
45311;SHT31;68264;51.540;5.854;2023-12-28T13:38:59;11.6;75.4
45311;SHT31;68264;51.540;5.854;2023-12-28T13:53:18;11.7;74.9
45311;SHT31;68264;51.540;5.854;2023-12-28T14:07:17;11.7;75.6
45311;SHT31;68264;51.540;5.854;2023-12-28T14:21:16;11.7;75.9
45311;SHT31;68264;51.540;5.854;2023-12-28T14:35:15;11.6;76.4
45311;SHT31;68264;51.540;5.854;2023-12-28T14:49:14;11.6;76.3
45311;SHT31;68264;51.540;5.854;2023-12-28T15:03:13;11.5;75.6
45311;SHT31;68264;51.540;5.854;2023-12-28T15:17:13;11.5;75.5
45311;SHT31;68264;51.540;5.854;2023-12-28T15:31:12;11.4;75.2
45311;SHT31;68264;51.540;5.854;2023-12-28T15:45:40;11.3;75.0
45311;SHT31;68264;51.540;5.854;2023-12-28T16:00:28;11.1;75.5
45311;SHT31;68264;51.540;5.854;2023-12-28T16:14:48;11.1;75.2
45311;SHT31;68264;51.540;5.854;2023-12-28T16:29:16;11.2;74.9
45311;SHT31;68264;51.540;5.854;2023-12-28T16:43:35;11.1;74.7
45311;SHT31;68264;51.540;5.854;2023-12-28T16:57:34;11.1;74.7
45311;SHT31;68264;51.540;5.854;2023-12-28T17:12:02;11.0;74.7
45311;SHT31;68264;51.540;5.854;2023-12-28T17:26:22;10.9;75.1
45311;SHT31;68264;51.540;5.854;2023-12-28T17:40:21;11.0;74.9
45311;SHT31;68264;51.540;5.854;2023-12-28T17:55:21;11.0;75.5
45311;SHT31;68264;51.540;5.854;2023-12-28T18:11:22;11.1;75.0
45311;SHT31;68264;51.540;5.854;2023-12-28T18:26:22;11.1;75.5
45311;SHT31;68264;51.540;5.854;2023-12-28T18:41:22;11.0;75.8
45311;SHT31;68264;51.540;5.854;2023-12-28T18:56:21;10.9;76.6
45311;SHT31;68264;51.540;5.854;2023-12-28T19:10:21;10.9;76.9
45311;SHT31;68264;51.540;5.854;2023-12-28T19:24:20;10.9;77.5
45311;SHT31;68264;51.540;5.854;2023-12-28T19:38:19;10.9;78.0
45311;SHT31;68264;51.540;5.854;2023-12-28T19:52:18;10.8;78.5
45311;SHT31;68264;51.540;5.854;2023-12-28T20:06:17;10.8;78.1
45311;SHT31;68264;51.540;5.854;2023-12-28T20:20:16;10.7;78.2
45311;SHT31;68264;51.540;5.854;2023-12-28T20:34:15;10.7;78.3
45311;SHT31;68264;51.540;5.854;2023-12-28T20:49:15;10.7;78.6
45311;SHT31;68264;51.540;5.854;2023-12-28T21:04:15;10.7;78.6
45311;SHT31;68264;51.540;5.854;2023-12-28T21:18:43;10.7;78.5
45311;SHT31;68264;51.540;5.854;2023-12-28T21:34:04;10.9;78.2
45311;SHT31;68264;51.540;5.854;2023-12-28T21:49:03;11.0;78.0
45311;SHT31;68264;51.540;5.854;2023-12-28T22:03:02;10.9;78.6
45311;SHT31;68264;51.540;5.854;2023-12-28T22:17:02;10.9;78.8
45311;SHT31;68264;51.540;5.854;2023-12-28T22:31:01;11.1;78.2
45311;SHT31;68264;51.540;5.854;2023-12-28T22:45:00;11.2;77.4
45311;SHT31;68264;51.540;5.854;2023-12-28T22:58:59;11.2;77.5
45311;SHT31;68264;51.540;5.854;2023-12-28T23:12:58;11.2;77.5
45311;SHT31;68264;51.540;5.854;2023-12-28T23:26:57;11.3;77.1
45311;SHT31;68264;51.540;5.854;2023-12-28T23:40:56;11.4;76.9
45311;SHT31;68264;51.540;5.854;2023-12-28T23:54:55;11.4;76.8
